sensor_id;sensor_type;location;lat;lon;timestamp;temperature;humidity
69281;SHT31;56392;51.082;17.080;2023-06-22T00:03:29;23.15;77.76
69281;SHT31;56392;51.082;17.080;2023-06-22T00:08:52;23.18;77.73
69281;SHT31;56392;51.082;17.080;2023-06-22T00:14:17;23.18;77.61
69281;SHT31;56392;51.082;17.080;2023-06-22T00:19:40;23.16;77.96
69281;SHT31;56392;51.082;17.080;2023-06-22T00:25:03;23.09;78.09
69281;SHT31;56392;51.082;17.080;2023-06-22T00:30:28;23.08;78.13
69281;SHT31;56392;51.082;17.080;2023-06-22T00:35:52;23.09;78.11
69281;SHT31;56392;51.082;17.080;2023-06-22T00:41:17;23.09;78.23
69281;SHT31;56392;51.082;17.080;2023-06-22T00:46:42;23.04;78.38
69281;SHT31;56392;51.082;17.080;2023-06-22T00:52:07;22.99;78.01
69281;SHT31;56392;51.082;17.080;2023-06-22T00:57:35;22.85;78.31
69281;SHT31;56392;51.082;17.080;2023-06-22T01:03:01;22.78;78.73
69281;SHT31;56392;51.082;17.080;2023-06-22T01:08:35;22.68;79.10
69281;SHT31;56392;51.082;17.080;2023-06-22T01:14:05;22.57;79.41
69281;SHT31;56392;51.082;17.080;2023-06-22T01:19:37;22.47;80.02
69281;SHT31;56392;51.082;17.080;2023-06-22T01:25:10;22.39;79.96
69281;SHT31;56392;51.082;17.080;2023-06-22T01:30:35;22.36;80.02
69281;SHT31;56392;51.082;17.080;2023-06-22T01:36:01;22.37;79.71
69281;SHT31;56392;51.082;17.080;2023-06-22T01:41:26;22.30;80.10
69281;SHT31;56392;51.082;17.080;2023-06-22T01:46:51;22.21;80.17
69281;SHT31;56392;51.082;17.080;2023-06-22T01:52:16;22.17;80.20
69281;SHT31;56392;51.082;17.080;2023-06-22T01:57:42;22.13;80.76
69281;SHT31;56392;51.082;17.080;2023-06-22T02:03:11;22.07;80.72
69281;SHT31;56392;51.082;17.080;2023-06-22T02:08:40;22.00;80.77
69281;SHT31;56392;51.082;17.080;2023-06-22T02:14:04;21.92;80.86
69281;SHT31;56392;51.082;17.080;2023-06-22T02:19:30;21.83;80.93
69281;SHT31;56392;51.082;17.080;2023-06-22T02:24:54;21.72;81.21
69281;SHT31;56392;51.082;17.080;2023-06-22T02:30:19;21.58;81.33
69281;SHT31;56392;51.082;17.080;2023-06-22T02:35:44;21.52;81.56
69281;SHT31;56392;51.082;17.080;2023-06-22T02:41:10;21.46;81.71
69281;SHT31;56392;51.082;17.080;2023-06-22T02:46:35;21.46;82.00
69281;SHT31;56392;51.082;17.080;2023-06-22T02:52:00;21.49;81.99
69281;SHT31;56392;51.082;17.080;2023-06-22T02:57:23;21.42;81.83
69281;SHT31;56392;51.082;17.080;2023-06-22T03:02:47;21.38;81.97
69281;SHT31;56392;51.082;17.080;2023-06-22T03:08:12;21.32;82.11
69281;SHT31;56392;51.082;17.080;2023-06-22T03:13:34;21.28;82.26
69281;SHT31;56392;51.082;17.080;2023-06-22T03:18:58;21.31;82.32
69281;SHT31;56392;51.082;17.080;2023-06-22T03:24:22;21.32;82.17
69281;SHT31;56392;51.082;17.080;2023-06-22T03:29:45;21.34;82.16
69281;SHT31;56392;51.082;17.080;2023-06-22T03:35:09;21.41;82.11
69281;SHT31;56392;51.082;17.080;2023-06-22T03:40:36;21.42;82.19
69281;SHT31;56392;51.082;17.080;2023-06-22T03:45:59;21.52;82.08
69281;SHT31;56392;51.082;17.080;2023-06-22T03:51:22;21.62;82.00
69281;SHT31;56392;51.082;17.080;2023-06-22T03:56:47;21.71;81.78
69281;SHT31;56392;51.082;17.080;2023-06-22T04:02:10;21.75;81.73
69281;SHT31;56392;51.082;17.080;2023-06-22T04:07:33;21.79;81.74
69281;SHT31;56392;51.082;17.080;2023-06-22T04:13:00;21.88;81.50
69281;SHT31;56392;51.082;17.080;2023-06-22T04:18:23;22.09;81.33
69281;SHT31;56392;51.082;17.080;2023-06-22T04:23:47;22.30;80.98
69281;SHT31;56392;51.082;17.080;2023-06-22T04:29:11;22.50;80.53
69281;SHT31;56392;51.082;17.080;2023-06-22T04:34:34;22.64;80.03
69281;SHT31;56392;51.082;17.080;2023-06-22T04:39:58;22.79;79.77
69281;SHT31;56392;51.082;17.080;2023-06-22T04:45:22;23.02;78.78
69281;SHT31;56392;51.082;17.080;2023-06-22T04:50:45;23.35;77.51
69281;SHT31;56392;51.082;17.080;2023-06-22T04:56:09;23.63;76.48
69281;SHT31;56392;51.082;17.080;2023-06-22T05:01:33;23.98;75.62
69281;SHT31;56392;51.082;17.080;2023-06-22T05:06:57;24.41;74.65
69281;SHT31;56392;51.082;17.080;2023-06-22T05:12:20;24.78;73.23
69281;SHT31;56392;51.082;17.080;2023-06-22T05:17:48;25.28;71.81
69281;SHT31;56392;51.082;17.080;2023-06-22T05:23:11;25.66;70.66
69281;SHT31;56392;51.082;17.080;2023-06-22T05:28:34;25.95;68.03
69281;SHT31;56392;51.082;17.080;2023-06-22T05:33:59;26.35;67.67
69281;SHT31;56392;51.082;17.080;2023-06-22T05:39:22;26.72;65.75
69281;SHT31;56392;51.082;17.080;2023-06-22T05:44:46;27.03;64.35
69281;SHT31;56392;51.082;17.080;2023-06-22T05:50:10;27.15;62.54
69281;SHT31;56392;51.082;17.080;2023-06-22T05:55:34;27.45;61.84
69281;SHT31;56392;51.082;17.080;2023-06-22T06:00:57;28.27;59.60
69281;SHT31;56392;51.082;17.080;2023-06-22T06:06:21;29.59;56.55
69281;SHT31;56392;51.082;17.080;2023-06-22T06:11:44;32.11;49.16
69281;SHT31;56392;51.082;17.080;2023-06-22T06:17:07;34.25;44.86
69281;SHT31;56392;51.082;17.080;2023-06-22T06:22:32;35.27;42.01
69281;SHT31;56392;51.082;17.080;2023-06-22T06:27:55;35.11;42.49
69281;SHT31;56392;51.082;17.080;2023-06-22T06:33:18;34.63;42.37
69281;SHT31;56392;51.082;17.080;2023-06-22T06:38:44;35.51;41.20
69281;SHT31;56392;51.082;17.080;2023-06-22T06:44:08;37.94;37.26
69281;SHT31;56392;51.082;17.080;2023-06-22T06:49:32;37.31;36.27
69281;SHT31;56392;51.082;17.080;2023-06-22T06:54:57;40.04;33.71
69281;SHT31;56392;51.082;17.080;2023-06-22T07:00:20;41.50;31.99
69281;SHT31;56392;51.082;17.080;2023-06-22T07:05:44;40.04;32.53
69281;SHT31;56392;51.082;17.080;2023-06-22T07:11:09;40.23;33.48
69281;SHT31;56392;51.082;17.080;2023-06-22T07:16:32;35.34;41.14
69281;SHT31;56392;51.082;17.080;2023-06-22T07:21:55;33.97;43.07
69281;SHT31;56392;51.082;17.080;2023-06-22T07:27:19;32.66;45.54
69281;SHT31;56392;51.082;17.080;2023-06-22T07:32:42;32.55;44.91
69281;SHT31;56392;51.082;17.080;2023-06-22T07:38:07;32.59;45.22
69281;SHT31;56392;51.082;17.080;2023-06-22T07:43:32;35.07;40.87
69281;SHT31;56392;51.082;17.080;2023-06-22T07:48:56;36.83;38.25
69281;SHT31;56392;51.082;17.080;2023-06-22T07:54:19;38.27;36.81
69281;SHT31;56392;51.082;17.080;2023-06-22T07:59:43;40.82;33.01
69281;SHT31;56392;51.082;17.080;2023-06-22T08:05:07;41.53;31.84
69281;SHT31;56392;51.082;17.080;2023-06-22T08:10:31;40.23;33.22
69281;SHT31;56392;51.082;17.080;2023-06-22T08:15:55;38.50;36.11
69281;SHT31;56392;51.082;17.080;2023-06-22T08:21:19;40.55;33.63
69281;SHT31;56392;51.082;17.080;2023-06-22T08:26:46;38.38;36.20
69281;SHT31;56392;51.082;17.080;2023-06-22T08:32:11;38.46;35.84
69281;SHT31;56392;51.082;17.080;2023-06-22T08:37:34;39.62;34.31
69281;SHT31;56392;51.082;17.080;2023-06-22T08:42:58;43.04;28.47
69281;SHT31;56392;51.082;17.080;2023-06-22T08:48:24;39.83;33.78
69281;SHT31;56392;51.082;17.080;2023-06-22T08:53:47;44.16;27.71
69281;SHT31;56392;51.082;17.080;2023-06-22T08:59:10;39.47;34.18
69281;SHT31;56392;51.082;17.080;2023-06-22T09:04:35;41.64;30.40
69281;SHT31;56392;51.082;17.080;2023-06-22T09:09:59;41.67;30.73
69281;SHT31;56392;51.082;17.080;2023-06-22T09:15:24;37.96;35.81
69281;SHT31;56392;51.082;17.080;2023-06-22T09:20:49;37.22;36.67
69281;SHT31;56392;51.082;17.080;2023-06-22T09:26:18;36.40;38.36
69281;SHT31;56392;51.082;17.080;2023-06-22T09:31:41;34.91;41.11
69281;SHT31;56392;51.082;17.080;2023-06-22T09:37:06;35.84;39.05
69281;SHT31;56392;51.082;17.080;2023-06-22T09:42:29;40.61;31.74
69281;SHT31;56392;51.082;17.080;2023-06-22T09:47:52;45.89;25.59
69281;SHT31;56392;51.082;17.080;2023-06-22T09:53:17;48.28;22.96
69281;SHT31;56392;51.082;17.080;2023-06-22T09:58:40;42.67;27.75
69281;SHT31;56392;51.082;17.080;2023-06-22T10:04:04;36.87;35.61
69281;SHT31;56392;51.082;17.080;2023-06-22T10:09:30;43.24;27.21
69281;SHT31;56392;51.082;17.080;2023-06-22T10:14:53;46.56;23.39
69281;SHT31;56392;51.082;17.080;2023-06-22T10:20:16;47.20;22.92
69281;SHT31;56392;51.082;17.080;2023-06-22T10:25:41;46.29;22.96
69281;SHT31;56392;51.082;17.080;2023-06-22T10:31:06;41.94;27.19
69281;SHT31;56392;51.082;17.080;2023-06-22T10:36:30;39.82;29.78
69281;SHT31;56392;51.082;17.080;2023-06-22T10:41:55;37.43;34.08
69281;SHT31;56392;51.082;17.080;2023-06-22T10:47:18;35.58;35.94
69281;SHT31;56392;51.082;17.080;2023-06-22T10:52:41;35.33;37.54
69281;SHT31;56392;51.082;17.080;2023-06-22T10:58:05;34.69;37.12
69281;SHT31;56392;51.082;17.080;2023-06-22T11:03:31;34.15;37.63
69281;SHT31;56392;51.082;17.080;2023-06-22T11:08:54;33.61;38.88
69281;SHT31;56392;51.082;17.080;2023-06-22T11:14:19;33.75;38.58
69281;SHT31;56392;51.082;17.080;2023-06-22T11:19:45;33.30;38.79
69281;SHT31;56392;51.082;17.080;2023-06-22T11:25:08;33.10;38.92
69281;SHT31;56392;51.082;17.080;2023-06-22T11:30:34;33.47;37.99
69281;SHT31;56392;51.082;17.080;2023-06-22T11:35:57;32.84;38.38
69281;SHT31;56392;51.082;17.080;2023-06-22T11:41:21;32.62;38.78
69281;SHT31;56392;51.082;17.080;2023-06-22T11:46:46;32.28;38.75
69281;SHT31;56392;51.082;17.080;2023-06-22T11:52:10;32.36;38.82
69281;SHT31;56392;51.082;17.080;2023-06-22T11:57:34;32.25;38.75
69281;SHT31;56392;51.082;17.080;2023-06-22T12:03:00;32.35;39.03
69281;SHT31;56392;51.082;17.080;2023-06-22T12:08:23;32.15;38.55
69281;SHT31;56392;51.082;17.080;2023-06-22T12:13:46;31.91;37.99
69281;SHT31;56392;51.082;17.080;2023-06-22T12:19:10;31.97;37.27
69281;SHT31;56392;51.082;17.080;2023-06-22T12:24:35;31.61;36.47
69281;SHT31;56392;51.082;17.080;2023-06-22T12:29:58;31.43;36.63
69281;SHT31;56392;51.082;17.080;2023-06-22T12:35:24;31.26;37.06
69281;SHT31;56392;51.082;17.080;2023-06-22T12:40:47;31.23;37.89
69281;SHT31;56392;51.082;17.080;2023-06-22T12:46:11;31.23;38.72
69281;SHT31;56392;51.082;17.080;2023-06-22T12:51:39;31.29;39.25
69281;SHT31;56392;51.082;17.080;2023-06-22T12:57:04;31.25;39.36
69281;SHT31;56392;51.082;17.080;2023-06-22T13:02:27;31.30;38.64
69281;SHT31;56392;51.082;17.080;2023-06-22T13:07:52;31.16;39.38
69281;SHT31;56392;51.082;17.080;2023-06-22T13:13:15;30.72;39.70
69281;SHT31;56392;51.082;17.080;2023-06-22T13:18:38;30.45;40.01
69281;SHT31;56392;51.082;17.080;2023-06-22T13:24:03;30.55;40.35
69281;SHT31;56392;51.082;17.080;2023-06-22T13:29:27;30.65;40.43
69281;SHT31;56392;51.082;17.080;2023-06-22T13:34:52;30.83;41.40
69281;SHT31;56392;51.082;17.080;2023-06-22T13:40:17;31.06;41.50
69281;SHT31;56392;51.082;17.080;2023-06-22T13:45:40;30.83;41.32
69281;SHT31;56392;51.082;17.080;2023-06-22T13:51:03;30.49;41.85
69281;SHT31;56392;51.082;17.080;2023-06-22T13:56:28;30.34;41.96
69281;SHT31;56392;51.082;17.080;2023-06-22T14:01:51;30.52;42.29
69281;SHT31;56392;51.082;17.080;2023-06-22T14:07:14;30.65;42.34
69281;SHT31;56392;51.082;17.080;2023-06-22T14:12:41;30.64;42.82
69281;SHT31;56392;51.082;17.080;2023-06-22T14:18:04;30.62;43.63
69281;SHT31;56392;51.082;17.080;2023-06-22T14:23:28;30.45;43.35
69281;SHT31;56392;51.082;17.080;2023-06-22T14:28:53;30.51;42.96
69281;SHT31;56392;51.082;17.080;2023-06-22T14:34:18;30.41;42.24
69281;SHT31;56392;51.082;17.080;2023-06-22T14:39:43;30.45;42.34
69281;SHT31;56392;51.082;17.080;2023-06-22T14:45:08;30.49;40.93
69281;SHT31;56392;51.082;17.080;2023-06-22T14:50:33;30.58;41.15
69281;SHT31;56392;51.082;17.080;2023-06-22T14:55:56;30.51;41.31
69281;SHT31;56392;51.082;17.080;2023-06-22T15:01:24;30.44;41.50
69281;SHT31;56392;51.082;17.080;2023-06-22T15:06:48;30.25;41.90
69281;SHT31;56392;51.082;17.080;2023-06-22T15:12:14;30.06;41.87
69281;SHT31;56392;51.082;17.080;2023-06-22T15:17:39;30.03;42.57
69281;SHT31;56392;51.082;17.080;2023-06-22T15:23:03;30.04;42.64
69281;SHT31;56392;51.082;17.080;2023-06-22T15:28:26;29.97;41.99
69281;SHT31;56392;51.082;17.080;2023-06-22T15:33:50;29.83;42.13
69281;SHT31;56392;51.082;17.080;2023-06-22T15:39:13;29.84;42.50
69281;SHT31;56392;51.082;17.080;2023-06-22T15:44:38;29.72;42.30
69281;SHT31;56392;51.082;17.080;2023-06-22T15:50:06;29.66;43.22
69281;SHT31;56392;51.082;17.080;2023-06-22T15:55:29;29.74;43.33
69281;SHT31;56392;51.082;17.080;2023-06-22T16:00:52;29.72;43.24
69281;SHT31;56392;51.082;17.080;2023-06-22T16:06:18;29.67;43.41
69281;SHT31;56392;51.082;17.080;2023-06-22T16:11:41;29.67;43.38
69281;SHT31;56392;51.082;17.080;2023-06-22T16:17:05;29.69;43.06
69281;SHT31;56392;51.082;17.080;2023-06-22T16:22:30;29.58;43.26
69281;SHT31;56392;51.082;17.080;2023-06-22T16:27:53;29.48;43.81
69281;SHT31;56392;51.082;17.080;2023-06-22T16:33:16;29.42;43.87
69281;SHT31;56392;51.082;17.080;2023-06-22T16:38:44;29.39;44.20
69281;SHT31;56392;51.082;17.080;2023-06-22T16:44:07;29.30;44.12
69281;SHT31;56392;51.082;17.080;2023-06-22T16:49:30;29.25;44.12
69281;SHT31;56392;51.082;17.080;2023-06-22T16:54:55;29.14;44.35
69281;SHT31;56392;51.082;17.080;2023-06-22T17:00:19;29.04;44.28
69281;SHT31;56392;51.082;17.080;2023-06-22T17:05:42;28.99;44.68
69281;SHT31;56392;51.082;17.080;2023-06-22T17:11:07;28.90;45.15
69281;SHT31;56392;51.082;17.080;2023-06-22T17:16:31;28.81;45.30
69281;SHT31;56392;51.082;17.080;2023-06-22T17:21:55;28.74;45.37
69281;SHT31;56392;51.082;17.080;2023-06-22T17:27:28;28.71;46.13
69281;SHT31;56392;51.082;17.080;2023-06-22T17:32:51;28.64;46.02
69281;SHT31;56392;51.082;17.080;2023-06-22T17:38:20;28.54;46.22
69281;SHT31;56392;51.082;17.080;2023-06-22T17:43:45;28.48;46.48
69281;SHT31;56392;51.082;17.080;2023-06-22T17:49:10;28.40;46.76
69281;SHT31;56392;51.082;17.080;2023-06-22T17:54:33;28.30;46.76
69281;SHT31;56392;51.082;17.080;2023-06-22T17:59:58;28.20;46.96
69281;SHT31;56392;51.082;17.080;2023-06-22T18:05:28;28.06;47.55
69281;SHT31;56392;51.082;17.080;2023-06-22T18:10:53;27.95;47.75
69281;SHT31;56392;51.082;17.080;2023-06-22T18:16:22;27.90;47.96
69281;SHT31;56392;51.082;17.080;2023-06-22T18:21:47;27.81;48.42
69281;SHT31;56392;51.082;17.080;2023-06-22T18:27:10;27.65;48.82
69281;SHT31;56392;51.082;17.080;2023-06-22T18:32:35;27.51;48.71
69281;SHT31;56392;51.082;17.080;2023-06-22T18:38:00;27.38;48.31
69281;SHT31;56392;51.082;17.080;2023-06-22T18:43:24;27.27;48.08
69281;SHT31;56392;51.082;17.080;2023-06-22T18:48:49;27.15;47.91
69281;SHT31;56392;51.082;17.080;2023-06-22T18:54:18;27.03;47.75
69281;SHT31;56392;51.082;17.080;2023-06-22T18:59:48;26.93;47.50
69281;SHT31;56392;51.082;17.080;2023-06-22T19:05:18;26.75;47.50
69281;SHT31;56392;51.082;17.080;2023-06-22T19:10:42;26.61;47.72
69281;SHT31;56392;51.082;17.080;2023-06-22T19:16:06;26.49;47.96
69281;SHT31;56392;51.082;17.080;2023-06-22T19:21:38;26.29;48.56
69281;SHT31;56392;51.082;17.080;2023-06-22T19:27:01;26.11;49.06
69281;SHT31;56392;51.082;17.080;2023-06-22T19:32:27;26.01;49.32
69281;SHT31;56392;51.082;17.080;2023-06-22T19:37:52;25.84;49.80
69281;SHT31;56392;51.082;17.080;2023-06-22T19:43:16;25.74;50.02
69281;SHT31;56392;51.082;17.080;2023-06-22T19:48:39;25.67;50.20
69281;SHT31;56392;51.082;17.080;2023-06-22T19:54:08;25.61;50.12
69281;SHT31;56392;51.082;17.080;2023-06-22T19:59:33;25.51;50.17
69281;SHT31;56392;51.082;17.080;2023-06-22T20:04:56;25.44;50.27
69281;SHT31;56392;51.082;17.080;2023-06-22T20:10:22;25.37;50.54
69281;SHT31;56392;51.082;17.080;2023-06-22T20:15:47;25.27;50.60
69281;SHT31;56392;51.082;17.080;2023-06-22T20:21:11;25.33;50.47
69281;SHT31;56392;51.082;17.080;2023-06-22T20:26:39;25.27;51.31
69281;SHT31;56392;51.082;17.080;2023-06-22T20:32:04;25.19;51.23
69281;SHT31;56392;51.082;17.080;2023-06-22T20:37:28;25.28;51.39
69281;SHT31;56392;51.082;17.080;2023-06-22T20:42:54;25.17;53.35
69281;SHT31;56392;51.082;17.080;2023-06-22T20:48:17;25.07;54.09
69281;SHT31;56392;51.082;17.080;2023-06-22T20:53:43;25.06;53.85
69281;SHT31;56392;51.082;17.080;2023-06-22T20:59:08;25.09;53.88
69281;SHT31;56392;51.082;17.080;2023-06-22T21:04:31;25.23;52.77
69281;SHT31;56392;51.082;17.080;2023-06-22T21:09:55;25.07;52.20
69281;SHT31;56392;51.082;17.080;2023-06-22T21:15:20;25.10;52.18
69281;SHT31;56392;51.082;17.080;2023-06-22T21:20:46;25.12;51.91
69281;SHT31;56392;51.082;17.080;2023-06-22T21:26:10;25.06;52.25
69281;SHT31;56392;51.082;17.080;2023-06-22T21:31:35;24.99;51.99
69281;SHT31;56392;51.082;17.080;2023-06-22T21:36:58;25.00;52.16
69281;SHT31;56392;51.082;17.080;2023-06-22T21:42:21;24.95;51.72
69281;SHT31;56392;51.082;17.080;2023-06-22T21:47:49;24.90;51.44
69281;SHT31;56392;51.082;17.080;2023-06-22T21:53:12;24.78;51.31
69281;SHT31;56392;51.082;17.080;2023-06-22T21:58:35;24.68;51.46
69281;SHT31;56392;51.082;17.080;2023-06-22T22:04:02;24.45;51.64
69281;SHT31;56392;51.082;17.080;2023-06-22T22:09:25;24.37;51.42
69281;SHT31;56392;51.082;17.080;2023-06-22T22:14:48;24.29;51.61
69281;SHT31;56392;51.082;17.080;2023-06-22T22:20:15;24.31;51.49
69281;SHT31;56392;51.082;17.080;2023-06-22T22:25:38;24.29;51.14
69281;SHT31;56392;51.082;17.080;2023-06-22T22:31:03;24.29;51.24
69281;SHT31;56392;51.082;17.080;2023-06-22T22:36:27;24.28;50.94
69281;SHT31;56392;51.082;17.080;2023-06-22T22:41:50;24.22;51.12
69281;SHT31;56392;51.082;17.080;2023-06-22T22:47:14;24.17;51.07
69281;SHT31;56392;51.082;17.080;2023-06-22T22:52:38;24.10;51.16
69281;SHT31;56392;51.082;17.080;2023-06-22T22:58:02;24.11;51.23
69281;SHT31;56392;51.082;17.080;2023-06-22T23:03:25;24.20;51.19
69281;SHT31;56392;51.082;17.080;2023-06-22T23:08:53;24.24;51.17
69281;SHT31;56392;51.082;17.080;2023-06-22T23:14:19;24.11;51.36
69281;SHT31;56392;51.082;17.080;2023-06-22T23:19:42;23.97;51.62
69281;SHT31;56392;51.082;17.080;2023-06-22T23:25:08;23.98;51.66
69281;SHT31;56392;51.082;17.080;2023-06-22T23:30:33;24.00;51.25
69281;SHT31;56392;51.082;17.080;2023-06-22T23:35:56;23.90;51.12
69281;SHT31;56392;51.082;17.080;2023-06-22T23:41:22;23.93;51.04
69281;SHT31;56392;51.082;17.080;2023-06-22T23:46:47;23.98;51.30
69281;SHT31;56392;51.082;17.080;2023-06-22T23:52:10;23.88;51.09
69281;SHT31;56392;51.082;17.080;2023-06-22T23:57:34;23.84;51.01
